createdAt,value
2019-04-06T00:00:53.236Z,0.88
2019-04-06T00:01:52.347Z,1.04
2019-04-06T00:02:52.638Z,0.60
2019-04-06T00:03:52.367Z,0.01
2019-04-06T00:04:52.470Z,0.36
2019-04-06T00:05:52.578Z,0.43
2019-04-06T00:06:52.638Z,0.32
2019-04-06T00:07:52.556Z,0.12
2019-04-06T00:08:52.490Z,0.75
2019-04-06T00:09:52.510Z,0.68
2019-04-06T00:10:55.012Z,0.87
2019-04-06T00:11:52.533Z,0.35
2019-04-06T00:12:52.601Z,0.75
2019-04-06T00:13:52.756Z,0.18
2019-04-06T00:14:52.560Z,0.54
2019-04-06T00:15:52.571Z,1.64
2019-04-06T00:16:52.604Z,2.04
2019-04-06T00:17:52.484Z,2.06
2019-04-06T00:18:52.519Z,2.15
2019-04-06T00:19:52.612Z,0.78
2019-04-06T00:20:52.492Z,0.49
2019-04-06T00:21:52.654Z,0.54
2019-04-06T00:22:52.507Z,0.82
2019-04-06T00:23:52.524Z,0.39
2019-04-06T00:24:52.666Z,0.90
2019-04-06T00:25:52.532Z,0.51
2019-04-06T00:26:52.555Z,1.32
2019-04-06T00:27:52.668Z,0.43
2019-04-06T00:28:52.537Z,0.58
2019-04-06T00:29:52.708Z,0.31
2019-04-06T00:30:52.719Z,0.43
2019-04-06T00:31:52.726Z,0.52
2019-04-06T00:32:52.559Z,0.35
2019-04-06T00:33:52.651Z,0.21
2019-04-06T00:34:52.606Z,0.45
2019-04-06T00:35:52.830Z,0.17
2019-04-06T00:36:52.539Z,0.00
2019-04-06T00:37:52.509Z,0.34
2019-04-06T00:38:52.543Z,1.07
2019-04-06T00:39:52.751Z,0.59
2019-04-06T00:40:52.676Z,1.44
2019-04-06T00:41:52.632Z,1.21
2019-04-06T00:42:52.708Z,0.65
2019-04-06T00:43:52.675Z,0.12
2019-04-06T00:44:52.559Z,0.00
2019-04-06T00:45:52.747Z,0.41
2019-04-06T00:46:52.693Z,0.21
2019-04-06T00:47:52.617Z,0.00
2019-04-06T00:48:52.630Z,0.03
2019-04-06T00:49:52.521Z,0.00
2019-04-06T00:50:52.579Z,0.00
2019-04-06T00:51:52.510Z,0.25
2019-04-06T00:52:52.556Z,0.22
2019-04-06T00:53:52.639Z,0.54
2019-04-06T00:54:52.650Z,0.46
2019-04-06T00:55:56.055Z,0.94
2019-04-06T00:56:52.540Z,0.17
2019-04-06T00:57:52.684Z,0.31
2019-04-06T00:58:52.695Z,0.57
2019-04-06T00:59:52.703Z,0.23
2019-04-06T01:00:52.713Z,0.14
2019-04-06T01:01:52.679Z,0.39
2019-04-06T01:02:52.739Z,0.53
2019-04-06T01:03:52.739Z,0.10
2019-04-06T01:04:52.623Z,0.58
2019-04-06T01:05:52.672Z,1.01
2019-04-06T01:06:52.640Z,0.89
2019-04-06T01:07:52.503Z,0.21
2019-04-06T01:08:52.761Z,0.15
2019-04-06T01:09:52.585Z,0.53
2019-04-06T01:10:52.532Z,0.92
2019-04-06T01:11:52.694Z,0.32
2019-04-06T01:12:52.691Z,0.09
2019-04-06T01:13:52.679Z,0.06
2019-04-06T01:14:52.601Z,0.49
2019-04-06T01:15:52.602Z,0.25
2019-04-06T01:16:52.674Z,0.57
2019-04-06T01:17:52.745Z,0.97
2019-04-06T01:18:53.955Z,0.53
2019-04-06T01:19:52.757Z,0.10
2019-04-06T01:20:52.650Z,0.63
2019-04-06T01:21:52.649Z,1.11
2019-04-06T01:22:52.677Z,0.51
2019-04-06T01:23:52.640Z,0.06
2019-04-06T01:24:52.759Z,0.08
2019-04-06T01:25:52.959Z,0.48
2019-04-06T01:26:52.821Z,0.52
2019-04-06T01:27:52.747Z,1.45
2019-04-06T01:28:52.985Z,1.00
2019-04-06T01:29:52.693Z,1.22
2019-04-06T01:30:57.467Z,1.30
2019-04-06T01:31:52.854Z,1.18
2019-04-06T01:32:52.718Z,0.88
2019-04-06T01:33:52.753Z,0.76
2019-04-06T01:34:52.728Z,0.65
2019-04-06T01:35:52.777Z,1.06
2019-04-06T01:36:52.852Z,1.51
2019-04-06T01:37:52.769Z,1.65
2019-04-06T01:38:52.696Z,0.37
2019-04-06T01:39:52.670Z,1.04
2019-04-06T01:40:52.860Z,0.17
2019-04-06T01:41:52.833Z,0.85
2019-04-06T01:42:52.840Z,1.31
2019-04-06T01:43:52.683Z,0.64
2019-04-06T01:44:52.806Z,1.03
2019-04-06T01:45:52.701Z,1.06
2019-04-06T01:46:52.734Z,1.72
2019-04-06T01:47:52.711Z,1.27
2019-04-06T01:48:52.807Z,1.09
2019-04-06T01:49:52.807Z,0.25
2019-04-06T01:50:52.756Z,0.36
2019-04-06T01:51:53.004Z,0.14
2019-04-06T01:52:52.882Z,0.06
2019-04-06T01:53:52.697Z,0.68
2019-04-06T01:54:52.715Z,0.22
2019-04-06T01:55:52.765Z,1.14
2019-04-06T01:56:52.704Z,1.44
2019-04-06T01:57:52.800Z,1.19
2019-04-06T01:58:52.785Z,1.56
2019-04-06T01:59:52.735Z,0.93
2019-04-06T02:00:52.838Z,0.17
2019-04-06T02:01:52.933Z,0.85
2019-04-06T02:02:52.852Z,0.04
2019-04-06T02:03:52.772Z,0.35
2019-04-06T02:04:52.871Z,0.15
2019-04-06T02:05:52.734Z,0.30
2019-04-06T02:06:52.945Z,0.01
2019-04-06T02:07:52.893Z,0.12
2019-04-06T02:08:52.699Z,0.60
2019-04-06T02:09:52.838Z,0.24
2019-04-06T02:10:52.722Z,0.62
2019-04-06T02:11:52.837Z,0.86
2019-04-06T02:12:52.728Z,0.55
2019-04-06T02:13:54.094Z,1.00
2019-04-06T02:14:52.734Z,0.55
2019-04-06T02:15:52.823Z,0.99
2019-04-06T02:16:52.880Z,0.81
2019-04-06T02:17:52.788Z,0.62
2019-04-06T02:18:52.773Z,0.29
2019-04-06T02:19:52.956Z,0.02
2019-04-06T02:20:52.800Z,0.13
2019-04-06T02:21:52.915Z,0.09
2019-04-06T02:22:52.805Z,0.03
2019-04-06T02:23:52.789Z,0.06
2019-04-06T02:24:53.178Z,0.02
2019-04-06T02:25:52.845Z,0.08
2019-04-06T02:26:52.880Z,0.22
2019-04-06T02:27:52.862Z,0.09
2019-04-06T02:28:52.971Z,0.12
2019-04-06T02:29:52.834Z,0.26
2019-04-06T02:30:52.956Z,0.84
2019-04-06T02:31:53.141Z,0.48
2019-04-06T02:32:53.014Z,0.13
2019-04-06T02:33:52.990Z,0.29
2019-04-06T02:34:53.014Z,0.29
2019-04-06T02:35:53.127Z,0.18
2019-04-06T02:36:53.063Z,0.21
2019-04-06T02:37:52.990Z,0.57
2019-04-06T02:38:53.181Z,0.48
2019-04-06T02:39:53.117Z,0.06
2019-04-06T02:40:53.036Z,0.42
2019-04-06T02:41:53.117Z,0.56
2019-04-06T02:42:53.066Z,0.78
2019-04-06T02:43:53.148Z,1.00
2019-04-06T02:44:53.042Z,0.85
2019-04-06T02:45:53.048Z,0.38
2019-04-06T02:46:53.399Z,0.03
2019-04-06T02:47:53.059Z,0.22
2019-04-06T02:48:53.105Z,0.27
2019-04-06T02:49:53.153Z,0.09
2019-04-06T02:50:53.223Z,0.24
2019-04-06T02:51:53.114Z,0.69
2019-04-06T02:52:53.497Z,0.02
2019-04-06T02:53:53.321Z,0.74
2019-04-06T02:54:53.264Z,1.21
2019-04-06T02:55:53.253Z,1.76
2019-04-06T02:56:53.278Z,0.91
2019-04-06T02:57:53.364Z,0.07
2019-04-06T02:58:53.371Z,0.26
2019-04-06T02:59:53.354Z,0.14
2019-04-06T03:00:53.405Z,0.96
2019-04-06T03:01:53.574Z,0.16
2019-04-06T03:02:53.613Z,1.23
2019-04-06T03:03:53.371Z,1.27
2019-04-06T03:04:53.335Z,1.83
2019-04-06T03:05:53.367Z,1.58
2019-04-06T03:06:53.416Z,1.65
2019-04-06T03:07:53.372Z,1.35
2019-04-06T03:08:53.737Z,0.08
2019-04-06T03:09:53.371Z,0.26
2019-04-06T03:10:53.398Z,0.30
2019-04-06T03:11:53.410Z,0.12
2019-04-06T03:12:53.531Z,0.58
2019-04-06T03:13:53.585Z,0.79
2019-04-06T03:14:53.582Z,1.00
2019-04-06T03:15:53.435Z,0.52
2019-04-06T03:16:53.748Z,1.50
2019-04-06T03:17:53.529Z,0.41
2019-04-06T03:18:53.491Z,0.41
2019-04-06T03:19:53.651Z,0.02
2019-04-06T03:20:53.546Z,0.03
2019-04-06T03:21:53.642Z,0.70
2019-04-06T03:22:54.259Z,0.12
2019-04-06T03:23:53.793Z,0.78
2019-04-06T03:24:53.711Z,0.18
2019-04-06T03:25:54.090Z,0.33
2019-04-06T03:27:00.726Z,0.08
2019-04-06T03:27:53.651Z,0.42
2019-04-06T03:28:53.612Z,0.50
2019-04-06T03:29:58.238Z,0.12
2019-04-06T03:30:53.659Z,0.21
2019-04-06T03:31:53.745Z,0.32
2019-04-06T03:32:53.623Z,0.42
2019-04-06T03:33:53.667Z,0.27
2019-04-06T03:34:53.613Z,0.45
2019-04-06T03:35:54.266Z,0.19
2019-04-06T03:36:53.638Z,0.21
2019-04-06T03:37:53.705Z,0.81
2019-04-06T03:38:53.647Z,1.07
2019-04-06T03:39:53.591Z,0.91
2019-04-06T03:40:53.694Z,0.02
2019-04-06T03:41:53.945Z,1.10
2019-04-06T03:42:53.594Z,0.92
2019-04-06T03:43:53.602Z,1.15
2019-04-06T03:44:53.656Z,0.08
2019-04-06T03:45:53.620Z,0.79
2019-04-06T03:46:53.679Z,0.53
2019-04-06T03:47:53.681Z,0.17
2019-04-06T03:48:53.663Z,0.05
2019-04-06T03:49:53.790Z,0.57
2019-04-06T03:50:53.559Z,0.06
2019-04-06T03:51:53.613Z,0.11
2019-04-06T03:52:53.786Z,0.11
2019-04-06T03:53:53.565Z,0.12
2019-04-06T03:54:53.769Z,0.27
2019-04-06T03:55:53.610Z,0.05
2019-04-06T03:56:53.626Z,0.55
2019-04-06T03:57:53.730Z,0.29
2019-04-06T03:58:53.624Z,0.29
2019-04-06T03:59:53.740Z,0.24
2019-04-06T04:00:53.617Z,0.78
2019-04-06T04:01:53.670Z,0.66
2019-04-06T04:02:53.736Z,0.09
2019-04-06T04:03:53.767Z,0.01
2019-04-06T04:04:53.568Z,0.14
2019-04-06T04:05:53.675Z,0.18
2019-04-06T04:06:53.721Z,0.24
2019-04-06T04:07:53.583Z,0.04
2019-04-06T04:08:53.684Z,0.05
2019-04-06T04:09:53.807Z,0.01
2019-04-06T04:10:53.611Z,0.26
2019-04-06T04:11:53.809Z,0.75
2019-04-06T04:12:53.751Z,0.87
2019-04-06T04:13:53.631Z,1.08
2019-04-06T04:14:53.761Z,0.36
2019-04-06T04:15:56.575Z,0.05
2019-04-06T04:16:54.014Z,0.08
2019-04-06T04:17:53.683Z,0.00
2019-04-06T04:18:53.778Z,0.30
2019-04-06T04:19:53.558Z,0.20
2019-04-06T04:20:53.590Z,0.13
2019-04-06T04:21:53.718Z,0.68
2019-04-06T04:22:53.704Z,0.29
2019-04-06T04:23:53.602Z,0.00
2019-04-06T04:24:53.677Z,0.07
2019-04-06T04:25:53.818Z,0.01
2019-04-06T04:26:53.675Z,0.48
2019-04-06T04:27:53.633Z,0.28
2019-04-06T04:28:53.827Z,0.05
2019-04-06T04:29:53.619Z,0.23
2019-04-06T04:30:53.631Z,0.40
2019-04-06T04:31:53.822Z,0.10
2019-04-06T04:32:53.775Z,0.15
2019-04-06T04:33:53.655Z,0.03
2019-04-06T04:34:53.549Z,0.34
2019-04-06T04:35:53.604Z,0.17
2019-04-06T04:36:53.834Z,0.04
2019-04-06T04:37:53.584Z,0.16
2019-04-06T04:38:53.851Z,0.46
2019-04-06T04:39:53.586Z,0.11
2019-04-06T04:40:53.634Z,0.30
2019-04-06T04:41:53.764Z,0.01
2019-04-06T04:42:53.766Z,0.01
2019-04-06T04:43:53.677Z,0.40
2019-04-06T04:44:53.663Z,0.49
2019-04-06T04:45:53.689Z,0.34
2019-04-06T04:46:53.894Z,0.87
2019-04-06T04:47:53.916Z,1.61
2019-04-06T04:48:53.764Z,1.63
2019-04-06T04:49:53.729Z,1.61
2019-04-06T04:50:53.701Z,1.20
2019-04-06T04:51:53.643Z,0.99
2019-04-06T04:52:53.619Z,0.12
2019-04-06T04:53:53.816Z,0.23
2019-04-06T04:54:53.622Z,0.47
2019-04-06T04:55:53.740Z,1.41
2019-04-06T04:56:53.703Z,0.64
2019-04-06T04:57:53.656Z,1.36
2019-04-06T04:58:53.775Z,0.53
2019-04-06T04:59:54.134Z,0.33
2019-04-06T05:00:53.770Z,0.56
2019-04-06T05:01:53.745Z,0.39
2019-04-06T05:02:53.683Z,0.69
2019-04-06T05:03:53.712Z,0.48
2019-04-06T05:04:53.781Z,0.11
2019-04-06T05:05:53.785Z,0.40
2019-04-06T05:06:53.748Z,0.98
2019-04-06T05:07:53.804Z,1.05
2019-04-06T05:08:53.738Z,0.77
2019-04-06T05:09:53.838Z,0.16
2019-04-06T05:10:53.752Z,0.70
2019-04-06T05:11:53.892Z,0.59
2019-04-06T05:12:53.695Z,0.44
2019-04-06T05:13:53.799Z,0.49
2019-04-06T05:14:53.787Z,0.63
2019-04-06T05:15:53.689Z,0.49
2019-04-06T05:16:53.792Z,0.68
2019-04-06T05:17:53.708Z,0.42
2019-04-06T05:18:53.696Z,0.66
2019-04-06T05:19:53.741Z,0.07
2019-04-06T05:20:53.937Z,0.35
2019-04-06T05:21:53.856Z,0.55
2019-04-06T05:22:53.653Z,0.29
2019-04-06T05:23:53.655Z,0.26
2019-04-06T05:24:53.614Z,0.10
2019-04-06T05:25:53.685Z,0.79
2019-04-06T05:26:53.720Z,0.48
2019-04-06T05:27:53.677Z,0.37
2019-04-06T05:28:53.695Z,0.30
2019-04-06T05:29:53.694Z,0.21
2019-04-06T05:30:53.748Z,1.74
2019-04-06T05:31:53.889Z,1.26
2019-04-06T05:32:53.787Z,0.21
2019-04-06T05:33:54.060Z,0.00
2019-04-06T05:34:53.742Z,0.05
2019-04-06T05:35:53.985Z,0.64
2019-04-06T05:36:53.722Z,0.24
2019-04-06T05:37:53.799Z,0.02
2019-04-06T05:38:53.759Z,0.00
2019-04-06T05:39:53.764Z,0.43
2019-04-06T05:40:53.857Z,0.03
2019-04-06T05:41:53.793Z,0.00
2019-04-06T05:42:53.897Z,0.00
2019-04-06T05:43:53.780Z,0.00
2019-04-06T05:44:53.929Z,0.01
2019-04-06T05:45:53.792Z,0.01
2019-04-06T05:46:53.820Z,0.07
2019-04-06T05:47:53.907Z,0.00
2019-04-06T05:48:54.000Z,0.00
2019-04-06T05:49:53.824Z,0.00
2019-04-06T05:50:53.845Z,0.03
2019-04-06T05:51:53.851Z,0.60
2019-04-06T05:52:53.855Z,0.92
2019-04-06T05:53:54.349Z,0.64
2019-04-06T05:54:53.990Z,1.10
2019-04-06T05:55:53.849Z,0.77
2019-04-06T05:56:54.158Z,0.41
2019-04-06T05:58:02.813Z,0.57
2019-04-06T05:58:54.017Z,0.75
2019-04-06T05:59:54.008Z,0.04
2019-04-06T06:00:54.039Z,0.07
2019-04-06T06:01:53.920Z,0.25
2019-04-06T06:02:54.028Z,0.17
2019-04-06T06:03:53.955Z,0.14
2019-04-06T06:04:54.229Z,0.26
2019-04-06T06:05:53.942Z,0.01
2019-04-06T06:06:54.068Z,0.07
2019-04-06T06:07:53.980Z,0.18
2019-04-06T06:08:54.122Z,0.22
2019-04-06T06:09:54.003Z,0.14
2019-04-06T06:10:54.169Z,0.00
2019-04-06T06:11:55.778Z,0.00
2019-04-06T06:12:54.346Z,0.00
2019-04-06T06:13:53.896Z,0.01
2019-04-06T06:14:54.110Z,0.01
2019-04-06T06:15:54.140Z,0.09
2019-04-06T06:16:53.928Z,0.18
2019-04-06T06:17:53.927Z,0.27
2019-04-06T06:18:54.103Z,0.06
2019-04-06T06:19:53.967Z,0.95
2019-04-06T06:20:53.976Z,0.57
2019-04-06T06:21:53.988Z,0.81
2019-04-06T06:22:54.076Z,1.69
2019-04-06T06:23:53.948Z,1.41
2019-04-06T06:24:54.158Z,1.09
2019-04-06T06:25:54.014Z,0.99
2019-04-06T06:26:54.232Z,0.21
2019-04-06T06:27:54.152Z,0.04
2019-04-06T06:28:54.144Z,0.27
2019-04-06T06:29:54.134Z,0.20
2019-04-06T06:30:53.945Z,0.52
2019-04-06T06:31:54.059Z,0.34
2019-04-06T06:32:53.942Z,0.44
2019-04-06T06:33:53.955Z,0.65
2019-04-06T06:34:53.983Z,0.37
2019-04-06T06:35:54.204Z,0.25
2019-04-06T06:36:54.183Z,1.18
2019-04-06T06:37:54.086Z,1.70
2019-04-06T06:38:54.013Z,1.68
2019-04-06T06:39:54.016Z,0.95
2019-04-06T06:40:54.227Z,0.46
2019-04-06T06:41:54.151Z,0.06
2019-04-06T06:42:54.155Z,0.55
2019-04-06T06:43:54.116Z,0.42
2019-04-06T06:44:54.067Z,0.31
2019-04-06T06:45:53.929Z,0.24
2019-04-06T06:46:54.155Z,0.49
2019-04-06T06:47:53.947Z,0.62
2019-04-06T06:48:54.161Z,0.82
2019-04-06T06:49:53.954Z,0.03
2019-04-06T06:50:54.088Z,0.66
2019-04-06T06:51:54.148Z,0.82
2019-04-06T06:52:54.021Z,0.77
2019-04-06T06:53:54.392Z,0.53
2019-04-06T06:54:54.014Z,1.13
2019-04-06T06:55:54.123Z,0.86
2019-04-06T06:56:54.242Z,0.82
2019-04-06T06:57:54.117Z,0.67
2019-04-06T06:58:54.062Z,0.31
2019-04-06T06:59:54.166Z,0.30
2019-04-06T07:00:54.047Z,0.64
2019-04-06T07:01:53.985Z,0.50
2019-04-06T07:02:53.954Z,0.25
2019-04-06T07:03:54.024Z,0.69
2019-04-06T07:04:54.097Z,0.57
2019-04-06T07:05:54.217Z,0.27
2019-04-06T07:06:54.009Z,0.43
2019-04-06T07:07:54.194Z,0.50
2019-04-06T07:08:54.114Z,0.71
2019-04-06T07:10:04.177Z,0.69
2019-04-06T07:10:54.249Z,0.65
2019-04-06T07:11:54.048Z,1.17
2019-04-06T07:12:54.076Z,0.33
2019-04-06T07:13:54.095Z,1.27
2019-04-06T07:14:54.119Z,1.07
2019-04-06T07:15:54.330Z,0.22
2019-04-06T07:16:54.088Z,0.07
2019-04-06T07:17:54.124Z,0.01
2019-04-06T07:18:54.122Z,0.50
2019-04-06T07:19:54.016Z,0.47
2019-04-06T07:20:54.025Z,0.52
2019-04-06T07:21:54.131Z,0.55
2019-04-06T07:22:54.039Z,1.07
2019-04-06T07:23:54.189Z,0.38
2019-04-06T07:24:54.028Z,1.07
2019-04-06T07:25:58.658Z,1.01
2019-04-06T07:26:54.186Z,0.21
2019-04-06T07:27:54.057Z,0.62
2019-04-06T07:28:54.068Z,1.16
2019-04-06T07:29:54.095Z,0.72
2019-04-06T07:30:54.112Z,0.88
2019-04-06T07:31:54.087Z,0.42
2019-04-06T07:32:55.386Z,0.55
2019-04-06T07:33:54.397Z,0.47
2019-04-06T07:34:54.187Z,0.43
2019-04-06T07:35:54.003Z,0.88
2019-04-06T07:36:53.992Z,0.78
2019-04-06T07:37:54.317Z,0.93
2019-04-06T07:38:54.056Z,1.20
2019-04-06T07:39:54.003Z,0.42
2019-04-06T07:40:54.107Z,0.98
2019-04-06T07:41:54.112Z,0.81
2019-04-06T07:42:54.088Z,1.25
2019-04-06T07:43:54.271Z,0.72
2019-04-06T07:44:54.294Z,1.72
2019-04-06T07:45:54.113Z,1.49
2019-04-06T07:46:54.364Z,0.97
2019-04-06T07:47:54.143Z,0.98
2019-04-06T07:48:54.030Z,0.82
2019-04-06T07:49:54.026Z,0.71
2019-04-06T07:50:54.696Z,0.90
2019-04-06T07:51:54.044Z,1.24
2019-04-06T07:52:54.237Z,0.72
2019-04-06T07:53:54.056Z,0.63
2019-04-06T07:54:54.243Z,1.34
2019-04-06T07:55:54.182Z,1.77
2019-04-06T07:56:54.092Z,1.62
2019-04-06T07:57:54.134Z,0.88
2019-04-06T07:58:54.103Z,1.77
2019-04-06T07:59:54.071Z,2.10
2019-04-06T08:00:54.085Z,0.92
2019-04-06T08:01:54.263Z,1.72
2019-04-06T08:02:54.164Z,1.57
2019-04-06T08:03:54.046Z,3.84
2019-04-06T08:04:54.014Z,3.77
2019-04-06T08:05:54.342Z,3.57
2019-04-06T08:06:54.032Z,3.56
2019-04-06T08:07:54.088Z,1.80
2019-04-06T08:08:54.372Z,1.73
2019-04-06T08:09:54.351Z,0.81
2019-04-06T08:10:54.142Z,0.80
2019-04-06T08:11:54.292Z,0.55
2019-04-06T08:12:54.108Z,1.14
2019-04-06T08:13:54.127Z,1.24
2019-04-06T08:14:54.251Z,0.72
2019-04-06T08:15:54.622Z,0.98
2019-04-06T08:16:54.393Z,1.30
2019-04-06T08:17:54.172Z,1.99
2019-04-06T08:18:54.270Z,2.61
2019-04-06T08:19:54.279Z,2.23
2019-04-06T08:20:54.081Z,1.33
2019-04-06T08:21:54.033Z,3.84
2019-04-06T08:22:54.399Z,3.27
2019-04-06T08:23:54.130Z,1.84
2019-04-06T08:24:54.168Z,0.76
2019-04-06T08:25:54.108Z,1.10
2019-04-06T08:26:54.048Z,0.45
2019-04-06T08:27:54.220Z,0.95
2019-04-06T08:29:00.330Z,1.59
2019-04-06T08:29:54.117Z,1.27
2019-04-06T08:30:54.147Z,0.76
2019-04-06T08:31:54.167Z,0.93
2019-04-06T08:32:54.362Z,1.64
2019-04-06T08:33:54.013Z,2.42
2019-04-06T08:34:54.088Z,2.02
2019-04-06T08:35:54.050Z,2.35
2019-04-06T08:36:54.105Z,2.01
2019-04-06T08:37:54.088Z,3.21
2019-04-06T08:38:54.190Z,1.96
2019-04-06T08:39:54.150Z,1.89
2019-04-06T08:40:54.163Z,3.45
2019-04-06T08:41:54.390Z,2.47
2019-04-06T08:42:54.160Z,1.17
2019-04-06T08:43:54.193Z,1.96
2019-04-06T08:44:54.155Z,2.10
2019-04-06T08:45:54.134Z,0.69
2019-04-06T08:46:54.303Z,2.70
2019-04-06T08:47:54.219Z,0.82
2019-04-06T08:48:54.168Z,0.66
2019-04-06T08:49:54.341Z,0.96
2019-04-06T08:50:54.096Z,1.07
2019-04-06T08:51:54.091Z,0.31
2019-04-06T08:52:54.156Z,1.29
2019-04-06T08:53:54.159Z,2.04
2019-04-06T08:54:54.115Z,3.70
2019-04-06T08:55:54.511Z,2.33
2019-04-06T08:56:54.122Z,2.14
2019-04-06T08:57:54.155Z,1.73
2019-04-06T08:58:54.738Z,0.50
2019-04-06T08:59:54.209Z,1.09
2019-04-06T09:00:54.350Z,2.25
2019-04-06T09:01:54.168Z,1.96
2019-04-06T09:02:54.273Z,1.72
2019-04-06T09:03:54.153Z,2.85
2019-04-06T09:04:54.132Z,4.21
2019-04-06T09:05:54.102Z,2.48
2019-04-06T09:06:54.049Z,1.88
2019-04-06T09:07:54.153Z,3.22
2019-04-06T09:08:54.429Z,3.04
2019-04-06T09:09:54.138Z,2.08
2019-04-06T09:10:54.113Z,1.19
2019-04-06T09:11:54.362Z,1.33
2019-04-06T09:12:54.448Z,0.20
2019-04-06T09:13:54.315Z,0.52
2019-04-06T09:14:54.590Z,0.98
2019-04-06T09:15:55.152Z,1.15
2019-04-06T09:16:54.597Z,0.51
2019-04-06T09:17:54.238Z,2.56
2019-04-06T09:18:54.235Z,3.52
2019-04-06T09:19:54.218Z,2.87
2019-04-06T09:20:54.623Z,1.82
2019-04-06T09:21:54.115Z,1.08
2019-04-06T09:22:54.324Z,0.39
2019-04-06T09:23:54.132Z,0.78
2019-04-06T09:24:54.171Z,2.89
2019-04-06T09:25:54.225Z,2.58
2019-04-06T09:26:54.548Z,1.33
2019-04-06T09:27:57.538Z,0.46
2019-04-06T09:28:54.202Z,0.18
2019-04-06T09:29:54.290Z,0.68
2019-04-06T09:30:54.221Z,0.66
2019-04-06T09:31:54.192Z,3.01
2019-04-06T09:32:54.177Z,4.92
2019-04-06T09:33:54.425Z,5.05
2019-04-06T09:34:54.463Z,3.54
2019-04-06T09:35:54.273Z,2.26
2019-04-06T09:36:54.670Z,1.04
2019-04-06T09:37:54.471Z,1.53
2019-04-06T09:38:54.198Z,0.59
2019-04-06T09:39:54.202Z,1.14
2019-04-06T09:40:54.127Z,1.21
2019-04-06T09:41:54.211Z,2.33
2019-04-06T09:42:54.333Z,3.11
2019-04-06T09:43:54.285Z,2.56
2019-04-06T09:44:54.291Z,1.86
2019-04-06T09:45:54.156Z,2.07
2019-04-06T09:46:54.332Z,2.82
2019-04-06T09:47:54.222Z,3.64
2019-04-06T09:48:54.189Z,3.11
2019-04-06T09:49:54.233Z,2.97
2019-04-06T09:50:54.238Z,2.66
2019-04-06T09:51:54.152Z,5.11
2019-04-06T09:52:54.445Z,5.35
2019-04-06T09:54:05.248Z,1.16
2019-04-06T09:54:54.156Z,2.96
2019-04-06T09:55:54.417Z,3.12
2019-04-06T09:56:54.153Z,2.32
2019-04-06T09:57:56.257Z,2.05
2019-04-06T09:58:54.163Z,3.82
2019-04-06T09:59:54.184Z,4.61
2019-04-06T10:00:54.230Z,4.56
2019-04-06T10:01:54.218Z,3.06
2019-04-06T10:02:54.420Z,3.99
2019-04-06T10:03:54.372Z,2.07
2019-04-06T10:04:54.293Z,1.03
2019-04-06T10:05:54.256Z,2.12
2019-04-06T10:06:54.372Z,4.16
2019-04-06T10:07:54.346Z,4.91
2019-04-06T10:08:54.238Z,3.64
2019-04-06T10:09:54.313Z,4.45
2019-04-06T10:10:54.243Z,4.10
2019-04-06T10:11:54.199Z,3.41
2019-04-06T10:12:54.507Z,2.09
2019-04-06T10:13:54.216Z,1.53
2019-04-06T10:14:54.254Z,1.14
2019-04-06T10:15:54.259Z,2.64
2019-04-06T10:16:54.201Z,3.51
2019-04-06T10:17:54.383Z,1.76
2019-04-06T10:18:54.282Z,1.80
2019-04-06T10:19:55.283Z,2.61
2019-04-06T10:20:54.402Z,5.96
2019-04-06T10:21:54.208Z,5.62
2019-04-06T10:22:55.272Z,5.34
2019-04-06T10:23:54.268Z,5.23
2019-04-06T10:24:54.295Z,5.19
2019-04-06T10:25:54.220Z,4.33
2019-04-06T10:26:54.884Z,3.55
2019-04-06T10:27:54.202Z,1.07
2019-04-06T10:28:54.384Z,1.59
2019-04-06T10:29:54.292Z,2.38
2019-04-06T10:30:54.272Z,4.73
2019-04-06T10:31:54.369Z,2.84
2019-04-06T10:32:54.322Z,3.07
2019-04-06T10:33:54.287Z,1.64
2019-04-06T10:34:54.444Z,2.88
2019-04-06T10:35:54.296Z,1.55
2019-04-06T10:36:54.292Z,1.37
2019-04-06T10:37:54.322Z,3.14
2019-04-06T10:38:54.293Z,3.26
2019-04-06T10:39:54.557Z,4.35
2019-04-06T10:40:54.349Z,3.87
2019-04-06T10:41:54.197Z,2.89
2019-04-06T10:42:54.279Z,3.20
2019-04-06T10:43:55.471Z,1.72
2019-04-06T10:44:54.302Z,2.03
2019-04-06T10:45:54.277Z,0.40
2019-04-06T10:46:54.349Z,0.88
2019-04-06T10:47:54.291Z,1.58
2019-04-06T10:48:54.289Z,1.33
2019-04-06T10:49:54.287Z,1.07
2019-04-06T10:50:54.724Z,1.49
2019-04-06T10:51:54.296Z,0.95
2019-04-06T10:52:54.308Z,0.85
2019-04-06T10:53:54.268Z,1.76
2019-04-06T10:54:54.535Z,2.65
2019-04-06T10:55:54.290Z,1.16
2019-04-06T10:56:54.387Z,1.50
2019-04-06T10:57:54.381Z,0.70
2019-04-06T10:58:54.373Z,1.72
2019-04-06T11:00:01.489Z,3.94
2019-04-06T11:00:54.561Z,3.43
2019-04-06T11:01:54.478Z,1.57
2019-04-06T11:02:54.363Z,2.05
2019-04-06T11:03:54.406Z,2.22
2019-04-06T11:04:54.320Z,2.15
2019-04-06T11:05:54.579Z,0.55
2019-04-06T11:06:54.585Z,1.88
2019-04-06T11:07:54.318Z,3.16
2019-04-06T11:08:54.200Z,3.75
2019-04-06T11:09:54.363Z,2.96
2019-04-06T11:10:54.257Z,2.80
2019-04-06T11:11:54.338Z,2.95
2019-04-06T11:12:54.692Z,1.32
2019-04-06T11:13:54.296Z,1.73
2019-04-06T11:14:54.516Z,2.59
2019-04-06T11:15:54.652Z,3.04
2019-04-06T11:16:54.248Z,3.18
2019-04-06T11:17:54.397Z,2.44
2019-04-06T11:18:54.324Z,1.66
2019-04-06T11:19:54.341Z,2.13
2019-04-06T11:20:54.383Z,2.59
2019-04-06T11:21:54.322Z,4.18
2019-04-06T11:22:54.538Z,2.06
2019-04-06T11:23:54.474Z,0.90
2019-04-06T11:24:54.331Z,1.03
2019-04-06T11:25:54.256Z,1.09
2019-04-06T11:26:54.366Z,1.70
2019-04-06T11:27:54.381Z,1.28
2019-04-06T11:28:54.398Z,2.57
2019-04-06T11:29:54.317Z,2.52
2019-04-06T11:30:54.413Z,4.03
2019-04-06T11:31:54.648Z,2.03
2019-04-06T11:32:54.402Z,1.90
2019-04-06T11:33:54.613Z,3.64
2019-04-06T11:34:54.532Z,2.50
2019-04-06T11:35:54.504Z,4.81
2019-04-06T11:36:54.588Z,2.88
2019-04-06T11:37:54.349Z,2.21
2019-04-06T11:38:54.328Z,2.50
2019-04-06T11:39:54.355Z,0.60
2019-04-06T11:40:54.279Z,0.14
2019-04-06T11:41:55.354Z,0.27
2019-04-06T11:42:54.349Z,2.41
2019-04-06T11:43:54.477Z,2.22
2019-04-06T11:44:54.399Z,2.19
2019-04-06T11:45:54.487Z,3.79
2019-04-06T11:46:54.904Z,3.62
2019-04-06T11:47:54.538Z,4.08
2019-04-06T11:48:54.449Z,2.30
2019-04-06T11:49:54.590Z,2.16
2019-04-06T11:50:54.337Z,3.35
2019-04-06T11:51:54.457Z,1.14
2019-04-06T11:52:54.392Z,0.50
2019-04-06T11:53:54.698Z,0.37
2019-04-06T11:54:54.568Z,2.96
2019-04-06T11:55:54.771Z,3.59
2019-04-06T11:56:54.584Z,3.84
2019-04-06T11:57:55.291Z,3.04
2019-04-06T11:58:54.576Z,2.79
2019-04-06T11:59:54.514Z,3.21
2019-04-06T12:00:54.541Z,2.40
2019-04-06T12:01:54.386Z,2.00
2019-04-06T12:02:54.784Z,2.29
2019-04-06T12:03:54.538Z,3.53
2019-04-06T12:04:54.559Z,2.77
2019-04-06T12:05:54.563Z,3.08
2019-04-06T12:06:54.582Z,3.48
2019-04-06T12:07:54.946Z,2.46
2019-04-06T12:08:54.797Z,3.81
2019-04-06T12:09:54.864Z,3.29
2019-04-06T12:10:54.793Z,0.81
2019-04-06T12:11:54.683Z,1.23
2019-04-06T12:12:56.282Z,0.96
2019-04-06T12:13:54.633Z,1.84
2019-04-06T12:14:54.634Z,0.77
2019-04-06T12:15:54.650Z,0.88
2019-04-06T12:16:54.634Z,0.93
2019-04-06T12:17:54.786Z,0.90
2019-04-06T12:18:54.845Z,0.38
2019-04-06T12:19:54.573Z,0.51
2019-04-06T12:20:54.789Z,0.30
2019-04-06T12:21:55.009Z,0.40
2019-04-06T12:22:54.738Z,1.21
2019-04-06T12:23:54.776Z,0.22
2019-04-06T12:24:54.764Z,0.18
2019-04-06T12:25:54.822Z,0.58
2019-04-06T12:26:54.976Z,0.65
2019-04-06T12:27:54.619Z,0.89
2019-04-06T12:28:54.779Z,0.83
2019-04-06T12:29:55.173Z,0.68
2019-04-06T12:30:54.750Z,1.57
2019-04-06T12:31:54.687Z,0.61
2019-04-06T12:32:54.733Z,0.74
2019-04-06T12:33:54.677Z,1.64
2019-04-06T12:34:54.958Z,2.46
2019-04-06T12:35:54.692Z,4.13
2019-04-06T12:36:54.711Z,3.81
2019-04-06T12:37:54.797Z,3.73
2019-04-06T12:38:55.031Z,3.20
2019-04-06T12:39:54.776Z,2.11
2019-04-06T12:40:54.888Z,1.19
2019-04-06T12:41:55.200Z,1.38
2019-04-06T12:42:54.867Z,1.66
2019-04-06T12:43:54.705Z,2.01
2019-04-06T12:44:54.771Z,2.23
2019-04-06T12:45:57.075Z,2.48
2019-04-06T12:46:54.669Z,2.07
2019-04-06T12:47:55.178Z,1.57
2019-04-06T12:48:54.806Z,1.17
2019-04-06T12:49:54.760Z,2.02
2019-04-06T12:50:55.051Z,1.96
2019-04-06T12:51:54.875Z,1.97
2019-04-06T12:52:54.744Z,0.94
2019-04-06T12:53:54.734Z,1.21
2019-04-06T12:54:54.778Z,0.66
2019-04-06T12:55:54.757Z,0.41
2019-04-06T12:56:55.138Z,1.28
2019-04-06T12:57:55.261Z,1.20
2019-04-06T12:58:54.708Z,2.59
2019-04-06T12:59:54.685Z,3.26
2019-04-06T13:00:54.656Z,2.57
2019-04-06T13:01:54.683Z,2.18
2019-04-06T13:02:55.061Z,1.49
2019-04-06T13:03:54.707Z,1.94
2019-04-06T13:04:54.824Z,1.58
2019-04-06T13:05:55.059Z,0.86
2019-04-06T13:06:54.710Z,0.20
2019-04-06T13:07:54.930Z,0.03
2019-04-06T13:08:54.747Z,0.48
2019-04-06T13:09:54.967Z,1.03
2019-04-06T13:10:54.710Z,1.98
2019-04-06T13:11:54.940Z,0.45
2019-04-06T13:12:55.141Z,0.33
2019-04-06T13:13:54.925Z,1.28
2019-04-06T13:14:54.789Z,0.95
2019-04-06T13:15:54.768Z,1.04
2019-04-06T13:16:54.709Z,0.46
2019-04-06T13:17:55.000Z,0.93
2019-04-06T13:18:54.721Z,1.81